sensor_id;sensor_type;location;lat;lon;timestamp;P1;durP1;ratioP1;P2;durP2;ratioP2
5493;SDS011;2769;49.864;8.656;2022-10-13T00:01:19;43.47;;;23.83;;
5493;SDS011;2769;49.864;8.656;2022-10-13T00:03:50;50.60;;;25.40;;
5493;SDS011;2769;49.864;8.656;2022-10-13T00:06:19;44.67;;;24.30;;
5493;SDS011;2769;49.864;8.656;2022-10-13T00:08:48;52.40;;;25.00;;
5493;SDS011;2769;49.864;8.656;2022-10-13T00:11:17;53.93;;;24.40;;
5493;SDS011;2769;49.864;8.656;2022-10-13T00:13:48;50.60;;;23.87;;
5493;SDS011;2769;49.864;8.656;2022-10-13T00:16:17;47.83;;;24.10;;
5493;SDS011;2769;49.864;8.656;2022-10-13T00:18:47;46.47;;;23.93;;
5493;SDS011;2769;49.864;8.656;2022-10-13T00:21:18;47.80;;;23.13;;
5493;SDS011;2769;49.864;8.656;2022-10-13T00:23:47;47.60;;;24.17;;
5493;SDS011;2769;49.864;8.656;2022-10-13T00:26:18;49.80;;;24.53;;
5493;SDS011;2769;49.864;8.656;2022-10-13T00:28:47;47.50;;;22.53;;
5493;SDS011;2769;49.864;8.656;2022-10-13T00:31:18;41.00;;;22.97;;
5493;SDS011;2769;49.864;8.656;2022-10-13T00:33:49;44.30;;;23.70;;
5493;SDS011;2769;49.864;8.656;2022-10-13T00:36:20;47.30;;;21.03;;
5493;SDS011;2769;49.864;8.656;2022-10-13T00:38:50;47.20;;;22.33;;
5493;SDS011;2769;49.864;8.656;2022-10-13T00:41:18;49.23;;;22.20;;
5493;SDS011;2769;49.864;8.656;2022-10-13T00:43:52;43.93;;;21.97;;
5493;SDS011;2769;49.864;8.656;2022-10-13T00:46:23;45.00;;;22.57;;
5493;SDS011;2769;49.864;8.656;2022-10-13T00:48:55;52.57;;;22.00;;
5493;SDS011;2769;49.864;8.656;2022-10-13T00:51:28;48.07;;;22.93;;
5493;SDS011;2769;49.864;8.656;2022-10-13T00:53:59;43.13;;;23.63;;
5493;SDS011;2769;49.864;8.656;2022-10-13T00:56:29;47.20;;;23.10;;
5493;SDS011;2769;49.864;8.656;2022-10-13T00:58:58;43.27;;;21.17;;
5493;SDS011;2769;49.864;8.656;2022-10-13T01:01:27;43.33;;;22.10;;
5493;SDS011;2769;49.864;8.656;2022-10-13T01:03:56;44.73;;;22.00;;
5493;SDS011;2769;49.864;8.656;2022-10-13T01:06:24;48.23;;;22.87;;
5493;SDS011;2769;49.864;8.656;2022-10-13T01:08:54;40.00;;;21.53;;
5493;SDS011;2769;49.864;8.656;2022-10-13T01:12:01;46.60;;;23.20;;
5493;SDS011;2769;49.864;8.656;2022-10-13T01:14:41;41.97;;;20.90;;
5493;SDS011;2769;49.864;8.656;2022-10-13T01:17:17;41.80;;;21.63;;
5493;SDS011;2769;49.864;8.656;2022-10-13T01:19:59;45.03;;;21.77;;
5493;SDS011;2769;49.864;8.656;2022-10-13T01:22:45;44.57;;;21.40;;
5493;SDS011;2769;49.864;8.656;2022-10-13T01:25:33;44.40;;;21.73;;
5493;SDS011;2769;49.864;8.656;2022-10-13T01:28:25;45.00;;;22.20;;
5493;SDS011;2769;49.864;8.656;2022-10-13T01:31:08;43.90;;;22.27;;
5493;SDS011;2769;49.864;8.656;2022-10-13T01:33:44;43.63;;;22.80;;
5493;SDS011;2769;49.864;8.656;2022-10-13T01:36:20;47.70;;;22.60;;
5493;SDS011;2769;49.864;8.656;2022-10-13T01:38:59;45.87;;;23.13;;
5493;SDS011;2769;49.864;8.656;2022-10-13T01:41:33;50.53;;;23.20;;
5493;SDS011;2769;49.864;8.656;2022-10-13T01:44:05;63.07;;;24.53;;
5493;SDS011;2769;49.864;8.656;2022-10-13T01:46:41;47.30;;;22.87;;
5493;SDS011;2769;49.864;8.656;2022-10-13T01:49:11;50.87;;;24.40;;
5493;SDS011;2769;49.864;8.656;2022-10-13T01:51:40;45.60;;;22.60;;
5493;SDS011;2769;49.864;8.656;2022-10-13T01:54:09;41.90;;;22.27;;
5493;SDS011;2769;49.864;8.656;2022-10-13T01:56:37;43.73;;;22.07;;
5493;SDS011;2769;49.864;8.656;2022-10-13T01:59:06;49.30;;;23.50;;
5493;SDS011;2769;49.864;8.656;2022-10-13T02:01:46;49.23;;;23.17;;
5493;SDS011;2769;49.864;8.656;2022-10-13T02:04:25;41.73;;;21.77;;
5493;SDS011;2769;49.864;8.656;2022-10-13T02:07:05;39.63;;;23.20;;
5493;SDS011;2769;49.864;8.656;2022-10-13T02:09:42;51.23;;;23.87;;
5493;SDS011;2769;49.864;8.656;2022-10-13T02:12:20;48.97;;;24.10;;
5493;SDS011;2769;49.864;8.656;2022-10-13T02:14:54;41.43;;;21.23;;
5493;SDS011;2769;49.864;8.656;2022-10-13T02:17:26;42.93;;;22.70;;
5493;SDS011;2769;49.864;8.656;2022-10-13T02:19:55;48.60;;;25.20;;
5493;SDS011;2769;49.864;8.656;2022-10-13T02:22:25;51.57;;;24.73;;
5493;SDS011;2769;49.864;8.656;2022-10-13T02:24:57;47.80;;;23.50;;
5493;SDS011;2769;49.864;8.656;2022-10-13T02:27:26;57.80;;;25.00;;
5493;SDS011;2769;49.864;8.656;2022-10-13T02:29:55;46.60;;;23.97;;
5493;SDS011;2769;49.864;8.656;2022-10-13T02:32:33;46.20;;;23.90;;
5493;SDS011;2769;49.864;8.656;2022-10-13T02:35:01;46.13;;;24.23;;
5493;SDS011;2769;49.864;8.656;2022-10-13T02:37:30;45.50;;;23.50;;
5493;SDS011;2769;49.864;8.656;2022-10-13T02:39:59;48.77;;;24.10;;
5493;SDS011;2769;49.864;8.656;2022-10-13T02:42:27;52.70;;;24.83;;
5493;SDS011;2769;49.864;8.656;2022-10-13T02:44:57;71.27;;;24.77;;
5493;SDS011;2769;49.864;8.656;2022-10-13T02:47:25;53.17;;;25.30;;
5493;SDS011;2769;49.864;8.656;2022-10-13T02:49:55;53.03;;;25.60;;
5493;SDS011;2769;49.864;8.656;2022-10-13T02:52:23;56.07;;;26.27;;
5493;SDS011;2769;49.864;8.656;2022-10-13T02:54:51;55.37;;;25.63;;
5493;SDS011;2769;49.864;8.656;2022-10-13T02:57:20;51.30;;;24.80;;
5493;SDS011;2769;49.864;8.656;2022-10-13T02:59:49;58.63;;;24.37;;
5493;SDS011;2769;49.864;8.656;2022-10-13T03:02:17;56.20;;;24.77;;
5493;SDS011;2769;49.864;8.656;2022-10-13T03:04:46;48.77;;;23.87;;
5493;SDS011;2769;49.864;8.656;2022-10-13T03:07:15;55.37;;;24.33;;
5493;SDS011;2769;49.864;8.656;2022-10-13T03:09:43;59.77;;;25.50;;
5493;SDS011;2769;49.864;8.656;2022-10-13T03:12:12;54.13;;;25.33;;
5493;SDS011;2769;49.864;8.656;2022-10-13T03:14:40;51.27;;;25.17;;
5493;SDS011;2769;49.864;8.656;2022-10-13T03:17:09;58.03;;;26.50;;
5493;SDS011;2769;49.864;8.656;2022-10-13T03:19:39;55.40;;;25.63;;
5493;SDS011;2769;49.864;8.656;2022-10-13T03:22:10;65.57;;;26.57;;
5493;SDS011;2769;49.864;8.656;2022-10-13T03:24:42;63.80;;;28.73;;
5493;SDS011;2769;49.864;8.656;2022-10-13T03:27:10;59.83;;;29.77;;
5493;SDS011;2769;49.864;8.656;2022-10-13T03:29:38;63.97;;;28.60;;
5493;SDS011;2769;49.864;8.656;2022-10-13T03:32:06;60.67;;;29.80;;
5493;SDS011;2769;49.864;8.656;2022-10-13T03:34:35;63.67;;;28.70;;
5493;SDS011;2769;49.864;8.656;2022-10-13T03:37:03;56.03;;;26.97;;
5493;SDS011;2769;49.864;8.656;2022-10-13T03:39:37;72.37;;;27.70;;
5493;SDS011;2769;49.864;8.656;2022-10-13T03:42:08;62.73;;;26.90;;
5493;SDS011;2769;49.864;8.656;2022-10-13T03:44:37;63.10;;;28.60;;
5493;SDS011;2769;49.864;8.656;2022-10-13T03:47:05;69.50;;;28.60;;
5493;SDS011;2769;49.864;8.656;2022-10-13T03:49:34;59.70;;;28.83;;
5493;SDS011;2769;49.864;8.656;2022-10-13T03:52:03;56.50;;;27.37;;
5493;SDS011;2769;49.864;8.656;2022-10-13T03:54:32;60.90;;;27.57;;
5493;SDS011;2769;49.864;8.656;2022-10-13T03:57:01;60.93;;;26.47;;
5493;SDS011;2769;49.864;8.656;2022-10-13T03:59:30;59.50;;;28.60;;
5493;SDS011;2769;49.864;8.656;2022-10-13T04:02:02;60.53;;;26.67;;
5493;SDS011;2769;49.864;8.656;2022-10-13T04:04:31;57.10;;;27.10;;
5493;SDS011;2769;49.864;8.656;2022-10-13T04:07:00;51.37;;;26.50;;
5493;SDS011;2769;49.864;8.656;2022-10-13T04:09:28;56.27;;;27.13;;
5493;SDS011;2769;49.864;8.656;2022-10-13T04:11:56;53.20;;;26.57;;
5493;SDS011;2769;49.864;8.656;2022-10-13T04:14:25;59.43;;;25.83;;
5493;SDS011;2769;49.864;8.656;2022-10-13T04:17:01;58.30;;;27.70;;
5493;SDS011;2769;49.864;8.656;2022-10-13T04:19:30;54.17;;;27.07;;
5493;SDS011;2769;49.864;8.656;2022-10-13T04:22:03;62.37;;;26.67;;
5493;SDS011;2769;49.864;8.656;2022-10-13T04:24:32;60.97;;;26.53;;
5493;SDS011;2769;49.864;8.656;2022-10-13T04:27:00;56.00;;;28.00;;
5493;SDS011;2769;49.864;8.656;2022-10-13T04:29:28;57.30;;;27.10;;
5493;SDS011;2769;49.864;8.656;2022-10-13T04:31:57;51.43;;;27.40;;
5493;SDS011;2769;49.864;8.656;2022-10-13T04:34:27;65.27;;;27.20;;
5493;SDS011;2769;49.864;8.656;2022-10-13T04:36:57;59.27;;;26.17;;
5493;SDS011;2769;49.864;8.656;2022-10-13T04:39:25;52.60;;;26.47;;
5493;SDS011;2769;49.864;8.656;2022-10-13T04:41:54;58.43;;;28.20;;
5493;SDS011;2769;49.864;8.656;2022-10-13T04:44:22;54.10;;;27.30;;
5493;SDS011;2769;49.864;8.656;2022-10-13T04:46:50;56.40;;;26.97;;
5493;SDS011;2769;49.864;8.656;2022-10-13T04:49:18;53.77;;;25.63;;
5493;SDS011;2769;49.864;8.656;2022-10-13T04:51:48;64.13;;;28.73;;
5493;SDS011;2769;49.864;8.656;2022-10-13T04:54:16;59.30;;;28.00;;
5493;SDS011;2769;49.864;8.656;2022-10-13T04:56:44;59.07;;;27.37;;
5493;SDS011;2769;49.864;8.656;2022-10-13T04:59:12;72.23;;;28.63;;
5493;SDS011;2769;49.864;8.656;2022-10-13T05:01:41;59.27;;;27.57;;
5493;SDS011;2769;49.864;8.656;2022-10-13T05:04:11;53.83;;;26.17;;
5493;SDS011;2769;49.864;8.656;2022-10-13T05:06:40;65.07;;;26.60;;
5493;SDS011;2769;49.864;8.656;2022-10-13T05:09:30;60.33;;;26.13;;
5493;SDS011;2769;49.864;8.656;2022-10-13T05:11:59;58.20;;;26.50;;
5493;SDS011;2769;49.864;8.656;2022-10-13T05:14:27;56.43;;;26.47;;
5493;SDS011;2769;49.864;8.656;2022-10-13T05:16:58;55.80;;;27.30;;
5493;SDS011;2769;49.864;8.656;2022-10-13T05:19:27;59.23;;;26.47;;
5493;SDS011;2769;49.864;8.656;2022-10-13T05:21:56;54.17;;;27.33;;
5493;SDS011;2769;49.864;8.656;2022-10-13T05:24:24;59.43;;;26.63;;
5493;SDS011;2769;49.864;8.656;2022-10-13T05:27:04;49.60;;;25.07;;
5493;SDS011;2769;49.864;8.656;2022-10-13T05:29:35;68.43;;;27.57;;
5493;SDS011;2769;49.864;8.656;2022-10-13T05:32:04;49.63;;;26.77;;
5493;SDS011;2769;49.864;8.656;2022-10-13T05:34:33;57.50;;;26.13;;
5493;SDS011;2769;49.864;8.656;2022-10-13T05:37:01;60.33;;;26.60;;
5493;SDS011;2769;49.864;8.656;2022-10-13T05:39:31;57.53;;;27.30;;
5493;SDS011;2769;49.864;8.656;2022-10-13T05:41:59;69.03;;;28.67;;
5493;SDS011;2769;49.864;8.656;2022-10-13T05:44:29;63.13;;;27.37;;
5493;SDS011;2769;49.864;8.656;2022-10-13T05:46:57;56.40;;;27.43;;
5493;SDS011;2769;49.864;8.656;2022-10-13T05:49:32;53.00;;;26.77;;
5493;SDS011;2769;49.864;8.656;2022-10-13T05:52:05;55.90;;;27.10;;
5493;SDS011;2769;49.864;8.656;2022-10-13T05:54:35;60.50;;;27.37;;
5493;SDS011;2769;49.864;8.656;2022-10-13T05:57:09;57.33;;;28.80;;
5493;SDS011;2769;49.864;8.656;2022-10-13T05:59:40;60.50;;;28.03;;
5493;SDS011;2769;49.864;8.656;2022-10-13T06:02:12;63.50;;;28.97;;
5493;SDS011;2769;49.864;8.656;2022-10-13T06:04:44;66.43;;;30.60;;
5493;SDS011;2769;49.864;8.656;2022-10-13T06:07:15;56.77;;;26.67;;
5493;SDS011;2769;49.864;8.656;2022-10-13T06:09:43;59.43;;;28.87;;
5493;SDS011;2769;49.864;8.656;2022-10-13T06:12:12;61.30;;;27.67;;
5493;SDS011;2769;49.864;8.656;2022-10-13T06:14:41;62.53;;;26.90;;
5493;SDS011;2769;49.864;8.656;2022-10-13T06:17:10;60.67;;;25.70;;
5493;SDS011;2769;49.864;8.656;2022-10-13T06:19:41;51.70;;;26.17;;
5493;SDS011;2769;49.864;8.656;2022-10-13T06:22:10;51.50;;;24.83;;
5493;SDS011;2769;49.864;8.656;2022-10-13T06:24:39;44.40;;;22.87;;
5493;SDS011;2769;49.864;8.656;2022-10-13T06:27:07;51.97;;;23.27;;
5493;SDS011;2769;49.864;8.656;2022-10-13T06:29:35;54.60;;;23.57;;
5493;SDS011;2769;49.864;8.656;2022-10-13T06:32:05;59.00;;;23.60;;
5493;SDS011;2769;49.864;8.656;2022-10-13T06:34:33;46.27;;;21.93;;
5493;SDS011;2769;49.864;8.656;2022-10-13T06:37:01;53.00;;;23.63;;
5493;SDS011;2769;49.864;8.656;2022-10-13T06:39:29;50.80;;;24.47;;
5493;SDS011;2769;49.864;8.656;2022-10-13T06:42:00;47.13;;;23.60;;
5493;SDS011;2769;49.864;8.656;2022-10-13T06:44:29;55.70;;;25.17;;
5493;SDS011;2769;49.864;8.656;2022-10-13T06:47:01;46.23;;;24.20;;
5493;SDS011;2769;49.864;8.656;2022-10-13T06:49:30;55.43;;;24.93;;
5493;SDS011;2769;49.864;8.656;2022-10-13T06:51:59;48.43;;;23.77;;
5493;SDS011;2769;49.864;8.656;2022-10-13T06:54:27;53.57;;;23.90;;
5493;SDS011;2769;49.864;8.656;2022-10-13T06:56:56;48.07;;;24.73;;
5493;SDS011;2769;49.864;8.656;2022-10-13T06:59:24;57.03;;;24.97;;
5493;SDS011;2769;49.864;8.656;2022-10-13T07:01:56;51.23;;;25.33;;
5493;SDS011;2769;49.864;8.656;2022-10-13T07:04:28;55.93;;;25.77;;
5493;SDS011;2769;49.864;8.656;2022-10-13T07:06:58;52.27;;;26.67;;
5493;SDS011;2769;49.864;8.656;2022-10-13T07:09:27;55.53;;;26.20;;
5493;SDS011;2769;49.864;8.656;2022-10-13T07:11:56;52.70;;;24.83;;
5493;SDS011;2769;49.864;8.656;2022-10-13T07:14:26;54.70;;;24.93;;
5493;SDS011;2769;49.864;8.656;2022-10-13T07:16:54;49.93;;;26.27;;
5493;SDS011;2769;49.864;8.656;2022-10-13T07:19:22;43.20;;;25.40;;
5493;SDS011;2769;49.864;8.656;2022-10-13T07:21:51;56.00;;;24.50;;
5493;SDS011;2769;49.864;8.656;2022-10-13T07:24:23;53.60;;;24.87;;
5493;SDS011;2769;49.864;8.656;2022-10-13T07:26:55;46.60;;;22.93;;
5493;SDS011;2769;49.864;8.656;2022-10-13T07:29:23;45.17;;;24.70;;
5493;SDS011;2769;49.864;8.656;2022-10-13T07:31:51;52.90;;;26.53;;
5493;SDS011;2769;49.864;8.656;2022-10-13T07:34:20;49.23;;;24.47;;
5493;SDS011;2769;49.864;8.656;2022-10-13T07:36:48;46.67;;;23.50;;
5493;SDS011;2769;49.864;8.656;2022-10-13T07:39:16;43.00;;;21.00;;
5493;SDS011;2769;49.864;8.656;2022-10-13T07:41:46;44.47;;;20.90;;
5493;SDS011;2769;49.864;8.656;2022-10-13T07:44:16;40.90;;;22.13;;
5493;SDS011;2769;49.864;8.656;2022-10-13T07:46:45;42.10;;;20.50;;
5493;SDS011;2769;49.864;8.656;2022-10-13T07:49:13;38.57;;;22.67;;
5493;SDS011;2769;49.864;8.656;2022-10-13T07:51:42;51.13;;;22.43;;
5493;SDS011;2769;49.864;8.656;2022-10-13T07:54:13;47.00;;;22.60;;
5493;SDS011;2769;49.864;8.656;2022-10-13T07:56:51;47.93;;;24.67;;
5493;SDS011;2769;49.864;8.656;2022-10-13T07:59:19;41.93;;;21.77;;
5493;SDS011;2769;49.864;8.656;2022-10-13T08:01:48;40.63;;;20.70;;
5493;SDS011;2769;49.864;8.656;2022-10-13T08:04:16;50.43;;;20.63;;
5493;SDS011;2769;49.864;8.656;2022-10-13T08:06:45;38.00;;;20.20;;
5493;SDS011;2769;49.864;8.656;2022-10-13T08:09:13;36.40;;;21.13;;
5493;SDS011;2769;49.864;8.656;2022-10-13T08:11:42;39.70;;;21.47;;
5493;SDS011;2769;49.864;8.656;2022-10-13T08:14:12;34.40;;;20.97;;
5493;SDS011;2769;49.864;8.656;2022-10-13T08:16:40;41.37;;;20.50;;
5493;SDS011;2769;49.864;8.656;2022-10-13T08:19:17;34.17;;;20.93;;
5493;SDS011;2769;49.864;8.656;2022-10-13T08:21:47;38.77;;;21.80;;
5493;SDS011;2769;49.864;8.656;2022-10-13T08:24:25;38.27;;;21.40;;
5493;SDS011;2769;49.864;8.656;2022-10-13T08:26:54;38.60;;;23.23;;
5493;SDS011;2769;49.864;8.656;2022-10-13T08:29:24;44.00;;;20.90;;
5493;SDS011;2769;49.864;8.656;2022-10-13T08:31:52;39.70;;;21.00;;
5493;SDS011;2769;49.864;8.656;2022-10-13T08:34:21;42.70;;;23.30;;
5493;SDS011;2769;49.864;8.656;2022-10-13T08:36:50;39.53;;;22.10;;
5493;SDS011;2769;49.864;8.656;2022-10-13T08:39:21;51.67;;;23.57;;
5493;SDS011;2769;49.864;8.656;2022-10-13T08:41:50;49.47;;;25.07;;
5493;SDS011;2769;49.864;8.656;2022-10-13T08:44:20;42.60;;;21.97;;
5493;SDS011;2769;49.864;8.656;2022-10-13T08:47:14;42.33;;;23.80;;
5493;SDS011;2769;49.864;8.656;2022-10-13T08:49:52;40.77;;;23.83;;
5493;SDS011;2769;49.864;8.656;2022-10-13T08:52:27;42.93;;;23.17;;
5493;SDS011;2769;49.864;8.656;2022-10-13T08:55:10;41.33;;;23.20;;
5493;SDS011;2769;49.864;8.656;2022-10-13T08:57:46;40.60;;;22.30;;
5493;SDS011;2769;49.864;8.656;2022-10-13T09:00:15;41.10;;;23.97;;
5493;SDS011;2769;49.864;8.656;2022-10-13T09:02:49;41.47;;;23.07;;
5493;SDS011;2769;49.864;8.656;2022-10-13T09:05:26;38.93;;;23.03;;
5493;SDS011;2769;49.864;8.656;2022-10-13T09:08:03;44.50;;;22.47;;
5493;SDS011;2769;49.864;8.656;2022-10-13T09:10:44;43.23;;;22.13;;
5493;SDS011;2769;49.864;8.656;2022-10-13T09:13:17;38.53;;;22.67;;
5493;SDS011;2769;49.864;8.656;2022-10-13T09:15:46;41.13;;;23.00;;
5493;SDS011;2769;49.864;8.656;2022-10-13T09:18:18;40.60;;;22.53;;
5493;SDS011;2769;49.864;8.656;2022-10-13T09:21:07;42.73;;;22.93;;
5493;SDS011;2769;49.864;8.656;2022-10-13T09:23:36;39.27;;;23.03;;
5493;SDS011;2769;49.864;8.656;2022-10-13T09:26:08;43.23;;;23.83;;
5493;SDS011;2769;49.864;8.656;2022-10-13T09:28:43;37.80;;;23.07;;
5493;SDS011;2769;49.864;8.656;2022-10-13T09:31:13;40.23;;;22.37;;
5493;SDS011;2769;49.864;8.656;2022-10-13T09:33:45;47.07;;;23.37;;
5493;SDS011;2769;49.864;8.656;2022-10-13T09:36:23;39.13;;;23.80;;
5493;SDS011;2769;49.864;8.656;2022-10-13T09:39:05;41.90;;;24.53;;
5493;SDS011;2769;49.864;8.656;2022-10-13T09:41:38;47.70;;;26.33;;
5493;SDS011;2769;49.864;8.656;2022-10-13T09:44:09;40.40;;;24.00;;
5493;SDS011;2769;49.864;8.656;2022-10-13T09:46:44;52.73;;;26.30;;
5493;SDS011;2769;49.864;8.656;2022-10-13T09:49:27;51.10;;;26.67;;
5493;SDS011;2769;49.864;8.656;2022-10-13T09:52:04;40.83;;;25.27;;
5493;SDS011;2769;49.864;8.656;2022-10-13T09:54:43;48.40;;;26.40;;
5493;SDS011;2769;49.864;8.656;2022-10-13T09:57:15;41.23;;;23.77;;
5493;SDS011;2769;49.864;8.656;2022-10-13T09:59:49;38.93;;;24.33;;
5493;SDS011;2769;49.864;8.656;2022-10-13T10:02:26;43.20;;;24.80;;
5493;SDS011;2769;49.864;8.656;2022-10-13T10:05:01;47.93;;;25.97;;
5493;SDS011;2769;49.864;8.656;2022-10-13T10:07:34;41.63;;;24.70;;
5493;SDS011;2769;49.864;8.656;2022-10-13T10:10:03;49.33;;;25.57;;
5493;SDS011;2769;49.864;8.656;2022-10-13T10:12:39;52.83;;;26.20;;
5493;SDS011;2769;49.864;8.656;2022-10-13T10:15:15;49.27;;;27.67;;
5493;SDS011;2769;49.864;8.656;2022-10-13T10:17:49;64.63;;;28.40;;
5493;SDS011;2769;49.864;8.656;2022-10-13T10:20:31;54.33;;;27.73;;
5493;SDS011;2769;49.864;8.656;2022-10-13T10:23:18;49.97;;;27.67;;
5493;SDS011;2769;49.864;8.656;2022-10-13T10:25:55;56.70;;;28.47;;
5493;SDS011;2769;49.864;8.656;2022-10-13T10:28:32;58.00;;;30.53;;
5493;SDS011;2769;49.864;8.656;2022-10-13T10:31:20;45.07;;;27.03;;
5493;SDS011;2769;49.864;8.656;2022-10-13T10:34:04;50.63;;;28.60;;
5493;SDS011;2769;49.864;8.656;2022-10-13T10:36:45;56.93;;;29.13;;
5493;SDS011;2769;49.864;8.656;2022-10-13T10:39:22;58.23;;;28.93;;
5493;SDS011;2769;49.864;8.656;2022-10-13T10:41:59;54.70;;;30.30;;
5493;SDS011;2769;49.864;8.656;2022-10-13T10:44:33;49.73;;;28.67;;
5493;SDS011;2769;49.864;8.656;2022-10-13T10:47:05;53.60;;;28.60;;
5493;SDS011;2769;49.864;8.656;2022-10-13T10:49:46;47.93;;;28.40;;
5493;SDS011;2769;49.864;8.656;2022-10-13T10:52:18;50.20;;;28.60;;
5493;SDS011;2769;49.864;8.656;2022-10-13T10:54:55;42.90;;;26.50;;
5493;SDS011;2769;49.864;8.656;2022-10-13T10:57:40;49.27;;;26.70;;
5493;SDS011;2769;49.864;8.656;2022-10-13T11:00:18;49.70;;;27.00;;
5493;SDS011;2769;49.864;8.656;2022-10-13T11:02:49;42.67;;;25.57;;
5493;SDS011;2769;49.864;8.656;2022-10-13T11:05:30;48.67;;;24.90;;
5493;SDS011;2769;49.864;8.656;2022-10-13T11:08:39;42.10;;;23.83;;
5493;SDS011;2769;49.864;8.656;2022-10-13T11:11:30;49.53;;;25.10;;
5493;SDS011;2769;49.864;8.656;2022-10-13T11:14:24;42.67;;;25.27;;
5493;SDS011;2769;49.864;8.656;2022-10-13T11:17:15;42.40;;;23.90;;
5493;SDS011;2769;49.864;8.656;2022-10-13T11:19:45;41.80;;;22.43;;
5493;SDS011;2769;49.864;8.656;2022-10-13T11:22:16;40.27;;;22.77;;
5493;SDS011;2769;49.864;8.656;2022-10-13T11:24:52;44.83;;;22.53;;
5493;SDS011;2769;49.864;8.656;2022-10-13T11:27:42;36.13;;;20.87;;
5493;SDS011;2769;49.864;8.656;2022-10-13T11:33:32;36.53;;;21.03;;
5493;SDS011;2769;49.864;8.656;2022-10-13T11:36:27;37.53;;;20.47;;
5493;SDS011;2769;49.864;8.656;2022-10-13T11:42:15;38.00;;;20.00;;
5493;SDS011;2769;49.864;8.656;2022-10-13T11:45:12;34.87;;;19.80;;
5493;SDS011;2769;49.864;8.656;2022-10-13T11:48:01;35.63;;;19.13;;
5493;SDS011;2769;49.864;8.656;2022-10-13T11:50:57;32.40;;;18.87;;
5493;SDS011;2769;49.864;8.656;2022-10-13T11:53:42;31.33;;;17.50;;
5493;SDS011;2769;49.864;8.656;2022-10-13T11:56:20;30.50;;;17.30;;
5493;SDS011;2769;49.864;8.656;2022-10-13T11:58:59;31.37;;;18.87;;
5493;SDS011;2769;49.864;8.656;2022-10-13T12:01:27;29.70;;;18.63;;
5493;SDS011;2769;49.864;8.656;2022-10-13T12:03:55;31.70;;;20.53;;
5493;SDS011;2769;49.864;8.656;2022-10-13T12:06:25;29.50;;;18.57;;
5493;SDS011;2769;49.864;8.656;2022-10-13T12:09:00;27.33;;;17.93;;
5493;SDS011;2769;49.864;8.656;2022-10-13T12:11:32;30.90;;;17.57;;
5493;SDS011;2769;49.864;8.656;2022-10-13T12:14:04;32.17;;;18.13;;
5493;SDS011;2769;49.864;8.656;2022-10-13T12:16:35;28.27;;;18.33;;
5493;SDS011;2769;49.864;8.656;2022-10-13T12:19:07;27.80;;;17.23;;
5493;SDS011;2769;49.864;8.656;2022-10-13T12:21:46;25.73;;;16.83;;
5493;SDS011;2769;49.864;8.656;2022-10-13T12:24:16;26.80;;;16.83;;
5493;SDS011;2769;49.864;8.656;2022-10-13T12:26:44;27.07;;;15.47;;
5493;SDS011;2769;49.864;8.656;2022-10-13T12:29:13;23.23;;;15.33;;
5493;SDS011;2769;49.864;8.656;2022-10-13T12:31:43;27.37;;;17.03;;
5493;SDS011;2769;49.864;8.656;2022-10-13T12:34:17;25.37;;;15.70;;
5493;SDS011;2769;49.864;8.656;2022-10-13T12:36:56;28.70;;;16.70;;
5493;SDS011;2769;49.864;8.656;2022-10-13T12:39:27;24.87;;;16.23;;
5493;SDS011;2769;49.864;8.656;2022-10-13T12:41:57;33.47;;;16.87;;
5493;SDS011;2769;49.864;8.656;2022-10-13T12:44:29;30.93;;;17.50;;
5493;SDS011;2769;49.864;8.656;2022-10-13T12:46:59;32.53;;;18.40;;
5493;SDS011;2769;49.864;8.656;2022-10-13T12:49:29;29.40;;;17.47;;
5493;SDS011;2769;49.864;8.656;2022-10-13T12:52:02;28.17;;;17.93;;
5493;SDS011;2769;49.864;8.656;2022-10-13T12:54:33;27.30;;;17.30;;
5493;SDS011;2769;49.864;8.656;2022-10-13T12:57:04;24.67;;;15.33;;
5493;SDS011;2769;49.864;8.656;2022-10-13T12:59:43;24.13;;;16.47;;
5493;SDS011;2769;49.864;8.656;2022-10-13T13:02:17;25.83;;;15.63;;
5493;SDS011;2769;49.864;8.656;2022-10-13T13:04:48;26.50;;;15.97;;
5493;SDS011;2769;49.864;8.656;2022-10-13T13:07:29;24.73;;;17.50;;
5493;SDS011;2769;49.864;8.656;2022-10-13T13:10:08;25.70;;;15.60;;
5493;SDS011;2769;49.864;8.656;2022-10-13T13:12:43;31.90;;;17.30;;
5493;SDS011;2769;49.864;8.656;2022-10-13T13:15:20;26.60;;;17.50;;
5493;SDS011;2769;49.864;8.656;2022-10-13T13:18:22;30.30;;;18.30;;
5493;SDS011;2769;49.864;8.656;2022-10-13T13:21:05;24.73;;;16.97;;
5493;SDS011;2769;49.864;8.656;2022-10-13T13:23:37;42.73;;;19.73;;
5493;SDS011;2769;49.864;8.656;2022-10-13T13:26:10;31.23;;;18.20;;
5493;SDS011;2769;49.864;8.656;2022-10-13T13:28:41;32.70;;;19.00;;
5493;SDS011;2769;49.864;8.656;2022-10-13T13:31:13;32.30;;;19.60;;
5493;SDS011;2769;49.864;8.656;2022-10-13T13:33:42;29.90;;;18.30;;
5493;SDS011;2769;49.864;8.656;2022-10-13T13:36:12;30.33;;;18.23;;
5493;SDS011;2769;49.864;8.656;2022-10-13T13:38:44;26.23;;;17.73;;
5493;SDS011;2769;49.864;8.656;2022-10-13T13:41:13;30.87;;;18.83;;
5493;SDS011;2769;49.864;8.656;2022-10-13T13:43:42;37.03;;;19.20;;
5493;SDS011;2769;49.864;8.656;2022-10-13T13:46:13;30.63;;;17.63;;
5493;SDS011;2769;49.864;8.656;2022-10-13T13:48:43;26.80;;;17.13;;
5493;SDS011;2769;49.864;8.656;2022-10-13T13:51:11;35.10;;;18.07;;
5493;SDS011;2769;49.864;8.656;2022-10-13T13:53:40;27.50;;;17.47;;
5493;SDS011;2769;49.864;8.656;2022-10-13T13:56:11;29.47;;;17.13;;
5493;SDS011;2769;49.864;8.656;2022-10-13T13:58:40;27.00;;;16.13;;
5493;SDS011;2769;49.864;8.656;2022-10-13T14:01:10;27.43;;;17.00;;
5493;SDS011;2769;49.864;8.656;2022-10-13T14:03:40;25.07;;;17.20;;
5493;SDS011;2769;49.864;8.656;2022-10-13T14:06:17;28.97;;;17.27;;
5493;SDS011;2769;49.864;8.656;2022-10-13T14:08:46;27.67;;;16.70;;
5493;SDS011;2769;49.864;8.656;2022-10-13T14:11:14;30.07;;;18.20;;
5493;SDS011;2769;49.864;8.656;2022-10-13T14:13:42;28.33;;;18.93;;
5493;SDS011;2769;49.864;8.656;2022-10-13T14:16:11;29.63;;;17.13;;
5493;SDS011;2769;49.864;8.656;2022-10-13T14:18:44;25.93;;;17.80;;
5493;SDS011;2769;49.864;8.656;2022-10-13T14:21:12;35.90;;;18.60;;
5493;SDS011;2769;49.864;8.656;2022-10-13T14:23:41;28.20;;;18.23;;
5493;SDS011;2769;49.864;8.656;2022-10-13T14:26:12;26.97;;;17.20;;
5493;SDS011;2769;49.864;8.656;2022-10-13T14:28:41;29.03;;;17.70;;
5493;SDS011;2769;49.864;8.656;2022-10-13T14:31:10;26.90;;;17.70;;
5493;SDS011;2769;49.864;8.656;2022-10-13T14:33:39;31.27;;;18.10;;
5493;SDS011;2769;49.864;8.656;2022-10-13T14:36:09;28.03;;;18.60;;
5493;SDS011;2769;49.864;8.656;2022-10-13T14:38:37;30.83;;;17.67;;
5493;SDS011;2769;49.864;8.656;2022-10-13T14:41:05;28.03;;;16.93;;
5493;SDS011;2769;49.864;8.656;2022-10-13T14:43:33;30.50;;;18.47;;
5493;SDS011;2769;49.864;8.656;2022-10-13T14:46:02;28.20;;;16.70;;
5493;SDS011;2769;49.864;8.656;2022-10-13T14:48:31;25.50;;;16.97;;
5493;SDS011;2769;49.864;8.656;2022-10-13T14:51:02;26.00;;;17.90;;
5493;SDS011;2769;49.864;8.656;2022-10-13T14:53:33;26.30;;;18.23;;
5493;SDS011;2769;49.864;8.656;2022-10-13T14:56:03;30.07;;;17.57;;
5493;SDS011;2769;49.864;8.656;2022-10-13T14:58:51;35.50;;;19.40;;
5493;SDS011;2769;49.864;8.656;2022-10-13T15:01:22;24.80;;;17.90;;
5493;SDS011;2769;49.864;8.656;2022-10-13T15:03:51;29.70;;;18.17;;
5493;SDS011;2769;49.864;8.656;2022-10-13T15:06:20;29.40;;;18.60;;
5493;SDS011;2769;49.864;8.656;2022-10-13T15:08:51;28.40;;;18.77;;
5493;SDS011;2769;49.864;8.656;2022-10-13T15:11:22;29.80;;;19.60;;
5493;SDS011;2769;49.864;8.656;2022-10-13T15:13:51;32.40;;;19.10;;
5493;SDS011;2769;49.864;8.656;2022-10-13T15:16:20;31.73;;;19.73;;
5493;SDS011;2769;49.864;8.656;2022-10-13T15:18:49;31.60;;;20.97;;
5493;SDS011;2769;49.864;8.656;2022-10-13T15:21:17;30.50;;;20.00;;
5493;SDS011;2769;49.864;8.656;2022-10-13T15:23:46;34.87;;;21.83;;
5493;SDS011;2769;49.864;8.656;2022-10-13T15:26:16;33.70;;;21.40;;